sensor_id;sensor_type;location;lat;lon;timestamp;P1;durP1;ratioP1;P2;durP2;ratioP2
57385;SDS011;71829;56.976;21.958;2023-08-30T00:00:21;4.88;;;1.27;;
57385;SDS011;71829;56.976;21.958;2023-08-30T00:02:49;4.97;;;1.10;;
57385;SDS011;71829;56.976;21.958;2023-08-30T00:05:17;6.30;;;1.05;;
57385;SDS011;71829;56.976;21.958;2023-08-30T00:07:44;3.53;;;1.10;;
57385;SDS011;71829;56.976;21.958;2023-08-30T00:10:12;4.00;;;1.15;;
57385;SDS011;71829;56.976;21.958;2023-08-30T00:12:39;2.92;;;0.82;;
57385;SDS011;71829;56.976;21.958;2023-08-30T00:15:07;3.47;;;0.98;;
57385;SDS011;71829;56.976;21.958;2023-08-30T00:17:35;5.65;;;1.20;;
57385;SDS011;71829;56.976;21.958;2023-08-30T00:20:02;3.95;;;1.17;;
57385;SDS011;71829;56.976;21.958;2023-08-30T00:22:30;3.67;;;1.20;;
57385;SDS011;71829;56.976;21.958;2023-08-30T00:24:57;3.70;;;0.80;;
57385;SDS011;71829;56.976;21.958;2023-08-30T00:27:25;4.82;;;0.80;;
57385;SDS011;71829;56.976;21.958;2023-08-30T00:29:52;5.50;;;1.10;;
57385;SDS011;71829;56.976;21.958;2023-08-30T00:32:20;4.88;;;1.00;;
57385;SDS011;71829;56.976;21.958;2023-08-30T00:34:50;4.20;;;1.30;;
57385;SDS011;71829;56.976;21.958;2023-08-30T00:37:18;4.82;;;1.08;;
57385;SDS011;71829;56.976;21.958;2023-08-30T00:39:45;3.50;;;0.90;;
57385;SDS011;71829;56.976;21.958;2023-08-30T00:42:13;4.40;;;0.90;;
57385;SDS011;71829;56.976;21.958;2023-08-30T00:44:40;4.53;;;0.90;;
57385;SDS011;71829;56.976;21.958;2023-08-30T00:47:08;3.47;;;0.70;;
57385;SDS011;71829;56.976;21.958;2023-08-30T00:49:35;3.42;;;0.95;;
57385;SDS011;71829;56.976;21.958;2023-08-30T00:52:06;5.05;;;1.08;;
57385;SDS011;71829;56.976;21.958;2023-08-30T00:54:34;3.63;;;1.02;;
57385;SDS011;71829;56.976;21.958;2023-08-30T00:57:01;3.72;;;1.25;;
57385;SDS011;71829;56.976;21.958;2023-08-30T00:59:29;3.78;;;0.80;;
57385;SDS011;71829;56.976;21.958;2023-08-30T01:01:59;3.90;;;1.35;;
57385;SDS011;71829;56.976;21.958;2023-08-30T01:04:27;5.97;;;1.00;;
57385;SDS011;71829;56.976;21.958;2023-08-30T01:06:55;3.25;;;0.90;;
57385;SDS011;71829;56.976;21.958;2023-08-30T01:09:23;4.45;;;0.93;;
57385;SDS011;71829;56.976;21.958;2023-08-30T01:12:00;5.65;;;1.10;;
57385;SDS011;71829;56.976;21.958;2023-08-30T01:15:30;3.85;;;1.10;;
57385;SDS011;71829;56.976;21.958;2023-08-30T01:17:27;3.85;;;0.95;;
57385;SDS011;71829;56.976;21.958;2023-08-30T01:19:59;4.82;;;0.95;;
57385;SDS011;71829;56.976;21.958;2023-08-30T01:27:41;3.72;;;0.90;;
57385;SDS011;71829;56.976;21.958;2023-08-30T01:30:10;4.70;;;1.08;;
57385;SDS011;71829;56.976;21.958;2023-08-30T01:32:38;4.20;;;0.90;;
57385;SDS011;71829;56.976;21.958;2023-08-30T01:35:06;4.55;;;0.90;;
57385;SDS011;71829;56.976;21.958;2023-08-30T01:37:34;3.60;;;0.70;;
57385;SDS011;71829;56.976;21.958;2023-08-30T01:40:02;3.42;;;1.13;;
57385;SDS011;71829;56.976;21.958;2023-08-30T01:42:35;4.30;;;0.90;;
57385;SDS011;71829;56.976;21.958;2023-08-30T01:45:03;3.58;;;0.70;;
57385;SDS011;71829;56.976;21.958;2023-08-30T01:47:31;5.32;;;1.10;;
57385;SDS011;71829;56.976;21.958;2023-08-30T01:50:00;4.18;;;1.30;;
57385;SDS011;71829;56.976;21.958;2023-08-30T01:52:30;3.38;;;0.80;;
57385;SDS011;71829;56.976;21.958;2023-08-30T01:54:57;4.10;;;1.02;;
57385;SDS011;71829;56.976;21.958;2023-08-30T01:57:25;3.50;;;0.82;;
57385;SDS011;71829;56.976;21.958;2023-08-30T01:59:53;4.35;;;0.70;;
57385;SDS011;71829;56.976;21.958;2023-08-30T02:02:20;6.95;;;0.98;;
57385;SDS011;71829;56.976;21.958;2023-08-30T02:04:48;4.65;;;1.27;;
57385;SDS011;71829;56.976;21.958;2023-08-30T02:07:26;5.30;;;1.45;;
57385;SDS011;71829;56.976;21.958;2023-08-30T02:09:57;4.60;;;1.25;;
57385;SDS011;71829;56.976;21.958;2023-08-30T02:12:27;5.13;;;1.48;;
57385;SDS011;71829;56.976;21.958;2023-08-30T02:14:57;5.93;;;1.30;;
57385;SDS011;71829;56.976;21.958;2023-08-30T02:17:25;5.05;;;1.33;;
57385;SDS011;71829;56.976;21.958;2023-08-30T02:19:53;6.40;;;1.17;;
57385;SDS011;71829;56.976;21.958;2023-08-30T02:22:20;6.47;;;1.42;;
57385;SDS011;71829;56.976;21.958;2023-08-30T02:24:48;4.35;;;1.33;;
57385;SDS011;71829;56.976;21.958;2023-08-30T02:27:15;4.35;;;0.90;;
57385;SDS011;71829;56.976;21.958;2023-08-30T02:29:43;4.00;;;1.05;;
57385;SDS011;71829;56.976;21.958;2023-08-30T02:32:10;3.80;;;0.90;;
57385;SDS011;71829;56.976;21.958;2023-08-30T02:34:38;4.18;;;1.05;;
57385;SDS011;71829;56.976;21.958;2023-08-30T02:37:05;4.32;;;1.02;;
57385;SDS011;71829;56.976;21.958;2023-08-30T02:39:33;4.72;;;1.10;;
57385;SDS011;71829;56.976;21.958;2023-08-30T02:42:00;5.30;;;1.52;;
57385;SDS011;71829;56.976;21.958;2023-08-30T02:44:28;4.70;;;1.38;;
57385;SDS011;71829;56.976;21.958;2023-08-30T02:46:55;5.28;;;1.23;;
57385;SDS011;71829;56.976;21.958;2023-08-30T02:49:23;4.97;;;1.15;;
57385;SDS011;71829;56.976;21.958;2023-08-30T02:51:50;4.40;;;1.60;;
57385;SDS011;71829;56.976;21.958;2023-08-30T02:54:18;4.60;;;1.17;;
57385;SDS011;71829;56.976;21.958;2023-08-30T02:56:45;4.28;;;1.23;;
57385;SDS011;71829;56.976;21.958;2023-08-30T02:59:13;4.32;;;1.10;;
57385;SDS011;71829;56.976;21.958;2023-08-30T03:01:40;4.70;;;1.20;;
57385;SDS011;71829;56.976;21.958;2023-08-30T03:04:08;5.72;;;1.13;;
57385;SDS011;71829;56.976;21.958;2023-08-30T03:06:35;4.57;;;1.08;;
57385;SDS011;71829;56.976;21.958;2023-08-30T03:09:03;5.85;;;0.95;;
57385;SDS011;71829;56.976;21.958;2023-08-30T03:11:32;4.30;;;0.95;;
57385;SDS011;71829;56.976;21.958;2023-08-30T03:14:00;4.50;;;0.90;;
57385;SDS011;71829;56.976;21.958;2023-08-30T03:16:27;4.15;;;1.02;;
57385;SDS011;71829;56.976;21.958;2023-08-30T03:18:55;3.78;;;0.80;;
57385;SDS011;71829;56.976;21.958;2023-08-30T03:21:23;4.25;;;1.05;;
57385;SDS011;71829;56.976;21.958;2023-08-30T03:23:50;5.35;;;1.60;;
57385;SDS011;71829;56.976;21.958;2023-08-30T03:26:17;3.95;;;1.00;;
57385;SDS011;71829;56.976;21.958;2023-08-30T03:28:45;3.83;;;0.93;;
57385;SDS011;71829;56.976;21.958;2023-08-30T03:31:13;3.40;;;0.80;;
57385;SDS011;71829;56.976;21.958;2023-08-30T03:33:41;3.47;;;1.10;;
57385;SDS011;71829;56.976;21.958;2023-08-30T03:36:11;8.55;;;1.40;;
57385;SDS011;71829;56.976;21.958;2023-08-30T03:38:39;10.05;;;1.85;;
57385;SDS011;71829;56.976;21.958;2023-08-30T03:41:07;6.38;;;2.20;;
57385;SDS011;71829;56.976;21.958;2023-08-30T03:43:35;6.43;;;1.50;;
57385;SDS011;71829;56.976;21.958;2023-08-30T03:46:02;5.80;;;1.98;;
57385;SDS011;71829;56.976;21.958;2023-08-30T03:48:30;8.27;;;3.20;;
57385;SDS011;71829;56.976;21.958;2023-08-30T03:50:58;7.80;;;3.28;;
57385;SDS011;71829;56.976;21.958;2023-08-30T03:53:26;4.90;;;1.33;;
57385;SDS011;71829;56.976;21.958;2023-08-30T03:55:54;5.28;;;1.25;;
57385;SDS011;71829;56.976;21.958;2023-08-30T03:58:21;6.15;;;1.08;;
57385;SDS011;71829;56.976;21.958;2023-08-30T04:00:49;5.72;;;1.38;;
57385;SDS011;71829;56.976;21.958;2023-08-30T04:05:46;3.85;;;1.15;;
57385;SDS011;71829;56.976;21.958;2023-08-30T04:08:14;6.80;;;1.38;;
57385;SDS011;71829;56.976;21.958;2023-08-30T04:10:41;5.40;;;1.20;;
57385;SDS011;71829;56.976;21.958;2023-08-30T04:13:10;8.40;;;2.50;;
57385;SDS011;71829;56.976;21.958;2023-08-30T04:15:38;5.53;;;3.17;;
57385;SDS011;71829;56.976;21.958;2023-08-30T04:18:06;5.07;;;2.08;;
57385;SDS011;71829;56.976;21.958;2023-08-30T04:20:34;6.07;;;2.33;;
57385;SDS011;71829;56.976;21.958;2023-08-30T04:23:02;5.22;;;2.10;;
57385;SDS011;71829;56.976;21.958;2023-08-30T04:25:30;7.65;;;4.50;;
57385;SDS011;71829;56.976;21.958;2023-08-30T04:27:57;4.22;;;1.73;;
57385;SDS011;71829;56.976;21.958;2023-08-30T04:30:25;5.53;;;2.00;;
57385;SDS011;71829;56.976;21.958;2023-08-30T04:32:52;5.38;;;1.90;;
57385;SDS011;71829;56.976;21.958;2023-08-30T04:35:20;3.83;;;0.90;;
57385;SDS011;71829;56.976;21.958;2023-08-30T04:37:47;3.85;;;1.02;;
57385;SDS011;71829;56.976;21.958;2023-08-30T04:40:15;3.88;;;0.90;;
57385;SDS011;71829;56.976;21.958;2023-08-30T04:42:42;4.38;;;1.02;;
57385;SDS011;71829;56.976;21.958;2023-08-30T04:45:10;3.63;;;0.85;;
57385;SDS011;71829;56.976;21.958;2023-08-30T04:47:37;3.17;;;0.95;;
57385;SDS011;71829;56.976;21.958;2023-08-30T04:50:05;3.50;;;0.93;;
57385;SDS011;71829;56.976;21.958;2023-08-30T04:52:32;7.03;;;1.42;;
57385;SDS011;71829;56.976;21.958;2023-08-30T04:55:00;3.50;;;0.95;;
57385;SDS011;71829;56.976;21.958;2023-08-30T04:57:27;4.45;;;1.00;;
57385;SDS011;71829;56.976;21.958;2023-08-30T04:59:55;3.58;;;1.20;;
57385;SDS011;71829;56.976;21.958;2023-08-30T05:02:23;3.53;;;1.23;;
57385;SDS011;71829;56.976;21.958;2023-08-30T05:04:51;4.88;;;1.20;;
57385;SDS011;71829;56.976;21.958;2023-08-30T05:07:27;4.68;;;1.70;;
57385;SDS011;71829;56.976;21.958;2023-08-30T05:09:54;4.80;;;1.30;;
57385;SDS011;71829;56.976;21.958;2023-08-30T05:12:22;5.75;;;2.00;;
57385;SDS011;71829;56.976;21.958;2023-08-30T05:14:49;4.68;;;1.73;;
57385;SDS011;71829;56.976;21.958;2023-08-30T05:17:17;5.40;;;1.38;;
57385;SDS011;71829;56.976;21.958;2023-08-30T05:19:44;5.78;;;1.55;;
57385;SDS011;71829;56.976;21.958;2023-08-30T05:22:12;6.70;;;1.35;;
57385;SDS011;71829;56.976;21.958;2023-08-30T05:24:39;6.57;;;1.58;;
57385;SDS011;71829;56.976;21.958;2023-08-30T05:27:07;4.65;;;1.80;;
57385;SDS011;71829;56.976;21.958;2023-08-30T05:29:37;4.32;;;1.40;;
57385;SDS011;71829;56.976;21.958;2023-08-30T05:32:04;4.53;;;1.33;;
57385;SDS011;71829;56.976;21.958;2023-08-30T05:34:32;4.93;;;1.67;;
57385;SDS011;71829;56.976;21.958;2023-08-30T05:37:03;4.78;;;1.33;;
57385;SDS011;71829;56.976;21.958;2023-08-30T05:39:30;3.92;;;1.20;;
57385;SDS011;71829;56.976;21.958;2023-08-30T05:41:58;4.05;;;1.02;;
57385;SDS011;71829;56.976;21.958;2023-08-30T05:44:25;4.95;;;1.10;;
57385;SDS011;71829;56.976;21.958;2023-08-30T05:46:53;4.28;;;1.00;;
57385;SDS011;71829;56.976;21.958;2023-08-30T05:49:20;2.67;;;0.75;;
57385;SDS011;71829;56.976;21.958;2023-08-30T05:51:48;4.78;;;1.27;;
57385;SDS011;71829;56.976;21.958;2023-08-30T05:54:15;5.32;;;1.33;;
57385;SDS011;71829;56.976;21.958;2023-08-30T05:56:44;7.53;;;1.40;;
57385;SDS011;71829;56.976;21.958;2023-08-30T05:59:12;5.97;;;1.65;;
57385;SDS011;71829;56.976;21.958;2023-08-30T06:01:39;4.53;;;1.65;;
57385;SDS011;71829;56.976;21.958;2023-08-30T06:04:08;5.80;;;1.85;;
57385;SDS011;71829;56.976;21.958;2023-08-30T06:06:36;6.20;;;2.03;;
57385;SDS011;71829;56.976;21.958;2023-08-30T06:09:05;6.25;;;2.03;;
57385;SDS011;71829;56.976;21.958;2023-08-30T06:11:32;5.50;;;1.95;;
57385;SDS011;71829;56.976;21.958;2023-08-30T06:14:00;6.97;;;1.40;;
57385;SDS011;71829;56.976;21.958;2023-08-30T06:16:27;4.45;;;1.10;;
57385;SDS011;71829;56.976;21.958;2023-08-30T06:18:55;7.72;;;2.40;;
57385;SDS011;71829;56.976;21.958;2023-08-30T06:21:22;5.88;;;1.17;;
57385;SDS011;71829;56.976;21.958;2023-08-30T06:23:50;6.65;;;1.30;;
57385;SDS011;71829;56.976;21.958;2023-08-30T06:26:17;5.53;;;1.42;;
57385;SDS011;71829;56.976;21.958;2023-08-30T06:28:45;8.38;;;1.33;;
57385;SDS011;71829;56.976;21.958;2023-08-30T06:31:29;3.78;;;0.80;;
57385;SDS011;71829;56.976;21.958;2023-08-30T06:33:59;8.82;;;1.52;;
57385;SDS011;71829;56.976;21.958;2023-08-30T06:36:26;3.63;;;1.05;;
57385;SDS011;71829;56.976;21.958;2023-08-30T06:38:54;4.55;;;1.20;;
57385;SDS011;71829;56.976;21.958;2023-08-30T06:41:21;5.28;;;1.00;;
57385;SDS011;71829;56.976;21.958;2023-08-30T06:43:49;5.07;;;1.27;;
57385;SDS011;71829;56.976;21.958;2023-08-30T06:46:17;4.53;;;1.20;;
57385;SDS011;71829;56.976;21.958;2023-08-30T06:48:45;4.35;;;0.82;;
57385;SDS011;71829;56.976;21.958;2023-08-30T06:51:12;4.28;;;0.95;;
57385;SDS011;71829;56.976;21.958;2023-08-30T06:53:39;8.77;;;3.28;;
57385;SDS011;71829;56.976;21.958;2023-08-30T06:56:07;12.27;;;4.10;;
57385;SDS011;71829;56.976;21.958;2023-08-30T06:58:34;30.20;;;12.55;;
57385;SDS011;71829;56.976;21.958;2023-08-30T07:01:02;9.70;;;3.00;;
57385;SDS011;71829;56.976;21.958;2023-08-30T07:03:31;7.20;;;2.47;;
57385;SDS011;71829;56.976;21.958;2023-08-30T07:05:58;6.93;;;1.95;;
57385;SDS011;71829;56.976;21.958;2023-08-30T07:08:26;14.50;;;5.63;;
57385;SDS011;71829;56.976;21.958;2023-08-30T07:10:55;6.38;;;1.90;;
57385;SDS011;71829;56.976;21.958;2023-08-30T07:13:23;7.43;;;2.45;;
57385;SDS011;71829;56.976;21.958;2023-08-30T07:15:51;13.27;;;4.50;;
57385;SDS011;71829;56.976;21.958;2023-08-30T07:18:18;7.30;;;1.65;;
57385;SDS011;71829;56.976;21.958;2023-08-30T07:20:46;8.95;;;3.40;;
57385;SDS011;71829;56.976;21.958;2023-08-30T07:23:15;11.90;;;4.45;;
57385;SDS011;71829;56.976;21.958;2023-08-30T07:25:43;9.18;;;2.85;;
57385;SDS011;71829;56.976;21.958;2023-08-30T07:28:11;5.38;;;1.67;;
57385;SDS011;71829;56.976;21.958;2023-08-30T07:30:38;9.18;;;4.32;;
57385;SDS011;71829;56.976;21.958;2023-08-30T07:33:06;7.18;;;3.00;;
57385;SDS011;71829;56.976;21.958;2023-08-30T07:35:33;8.05;;;3.00;;
57385;SDS011;71829;56.976;21.958;2023-08-30T07:38:01;11.05;;;3.38;;
57385;SDS011;71829;56.976;21.958;2023-08-30T07:40:29;13.02;;;6.45;;
57385;SDS011;71829;56.976;21.958;2023-08-30T07:42:57;15.63;;;9.15;;
57385;SDS011;71829;56.976;21.958;2023-08-30T07:45:25;5.60;;;2.30;;
57385;SDS011;71829;56.976;21.958;2023-08-30T07:47:53;4.22;;;1.17;;
57385;SDS011;71829;56.976;21.958;2023-08-30T07:50:21;9.27;;;4.22;;
57385;SDS011;71829;56.976;21.958;2023-08-30T07:52:48;11.25;;;5.25;;
57385;SDS011;71829;56.976;21.958;2023-08-30T07:55:16;7.15;;;2.40;;
57385;SDS011;71829;56.976;21.958;2023-08-30T07:57:43;8.00;;;3.25;;
57385;SDS011;71829;56.976;21.958;2023-08-30T08:00:11;5.97;;;2.30;;
57385;SDS011;71829;56.976;21.958;2023-08-30T08:02:39;7.65;;;1.85;;
57385;SDS011;71829;56.976;21.958;2023-08-30T08:05:08;4.93;;;1.98;;
57385;SDS011;71829;56.976;21.958;2023-08-30T08:07:37;6.93;;;3.08;;
57385;SDS011;71829;56.976;21.958;2023-08-30T08:10:06;4.82;;;1.60;;
57385;SDS011;71829;56.976;21.958;2023-08-30T08:12:34;6.97;;;2.35;;
57385;SDS011;71829;56.976;21.958;2023-08-30T08:15:02;7.43;;;2.95;;
57385;SDS011;71829;56.976;21.958;2023-08-30T08:17:29;7.00;;;2.50;;
57385;SDS011;71829;56.976;21.958;2023-08-30T08:19:56;9.57;;;3.22;;
57385;SDS011;71829;56.976;21.958;2023-08-30T08:22:24;6.20;;;2.20;;
57385;SDS011;71829;56.976;21.958;2023-08-30T08:24:54;6.65;;;2.20;;
57385;SDS011;71829;56.976;21.958;2023-08-30T08:27:26;9.48;;;3.20;;
57385;SDS011;71829;56.976;21.958;2023-08-30T08:29:54;6.47;;;2.75;;
57385;SDS011;71829;56.976;21.958;2023-08-30T08:32:21;9.05;;;2.80;;
57385;SDS011;71829;56.976;21.958;2023-08-30T08:34:49;7.00;;;2.63;;
57385;SDS011;71829;56.976;21.958;2023-08-30T08:37:16;9.30;;;3.22;;
57385;SDS011;71829;56.976;21.958;2023-08-30T08:39:44;8.55;;;2.90;;
57385;SDS011;71829;56.976;21.958;2023-08-30T08:42:13;8.10;;;2.53;;
57385;SDS011;71829;56.976;21.958;2023-08-30T08:44:42;7.93;;;2.63;;
57385;SDS011;71829;56.976;21.958;2023-08-30T08:47:10;7.63;;;2.50;;
57385;SDS011;71829;56.976;21.958;2023-08-30T08:49:38;7.85;;;3.55;;
57385;SDS011;71829;56.976;21.958;2023-08-30T08:52:06;12.32;;;7.22;;
57385;SDS011;71829;56.976;21.958;2023-08-30T08:54:49;7.18;;;3.38;;
57385;SDS011;71829;56.976;21.958;2023-08-30T08:57:17;6.25;;;2.60;;
57385;SDS011;71829;56.976;21.958;2023-08-30T08:59:44;8.98;;;3.75;;
57385;SDS011;71829;56.976;21.958;2023-08-30T09:02:13;9.43;;;3.05;;
57385;SDS011;71829;56.976;21.958;2023-08-30T09:04:41;7.90;;;3.58;;
57385;SDS011;71829;56.976;21.958;2023-08-30T09:07:10;9.38;;;3.05;;
57385;SDS011;71829;56.976;21.958;2023-08-30T09:09:37;6.72;;;2.20;;
57385;SDS011;71829;56.976;21.958;2023-08-30T09:12:05;7.60;;;2.92;;
57385;SDS011;71829;56.976;21.958;2023-08-30T09:14:32;8.93;;;2.50;;
57385;SDS011;71829;56.976;21.958;2023-08-30T09:17:01;7.80;;;2.80;;
57385;SDS011;71829;56.976;21.958;2023-08-30T09:19:29;6.38;;;2.15;;
57385;SDS011;71829;56.976;21.958;2023-08-30T09:21:57;9.98;;;4.78;;
57385;SDS011;71829;56.976;21.958;2023-08-30T09:24:25;9.80;;;4.40;;
57385;SDS011;71829;56.976;21.958;2023-08-30T09:26:53;19.77;;;8.93;;
57385;SDS011;71829;56.976;21.958;2023-08-30T09:29:21;12.20;;;3.83;;
57385;SDS011;71829;56.976;21.958;2023-08-30T09:31:53;11.48;;;4.68;;
57385;SDS011;71829;56.976;21.958;2023-08-30T09:34:24;7.10;;;2.70;;
57385;SDS011;71829;56.976;21.958;2023-08-30T09:36:54;9.98;;;3.92;;
57385;SDS011;71829;56.976;21.958;2023-08-30T09:39:22;13.88;;;5.43;;
57385;SDS011;71829;56.976;21.958;2023-08-30T09:41:50;11.00;;;4.45;;
57385;SDS011;71829;56.976;21.958;2023-08-30T09:44:20;6.18;;;2.70;;
57385;SDS011;71829;56.976;21.958;2023-08-30T09:46:51;10.82;;;3.95;;
57385;SDS011;71829;56.976;21.958;2023-08-30T09:49:23;11.73;;;4.43;;
57385;SDS011;71829;56.976;21.958;2023-08-30T09:51:52;7.13;;;2.97;;
57385;SDS011;71829;56.976;21.958;2023-08-30T09:59:22;8.45;;;4.00;;
57385;SDS011;71829;56.976;21.958;2023-08-30T10:01:50;8.48;;;3.55;;
57385;SDS011;71829;56.976;21.958;2023-08-30T10:04:22;9.35;;;3.72;;
57385;SDS011;71829;56.976;21.958;2023-08-30T10:06:50;10.90;;;4.25;;
57385;SDS011;71829;56.976;21.958;2023-08-30T10:09:19;9.35;;;4.60;;
57385;SDS011;71829;56.976;21.958;2023-08-30T10:11:47;9.65;;;5.05;;
57385;SDS011;71829;56.976;21.958;2023-08-30T10:14:14;9.13;;;4.55;;
57385;SDS011;71829;56.976;21.958;2023-08-30T10:16:46;12.93;;;5.53;;
57385;SDS011;71829;56.976;21.958;2023-08-30T10:19:19;12.43;;;5.35;;
57385;SDS011;71829;56.976;21.958;2023-08-30T10:24:23;13.00;;;5.60;;
57385;SDS011;71829;56.976;21.958;2023-08-30T10:27:04;12.50;;;4.88;;
57385;SDS011;71829;56.976;21.958;2023-08-30T10:29:32;11.70;;;5.40;;
57385;SDS011;71829;56.976;21.958;2023-08-30T10:32:04;10.38;;;5.07;;
57385;SDS011;71829;56.976;21.958;2023-08-30T10:34:34;11.63;;;5.63;;
57385;SDS011;71829;56.976;21.958;2023-08-30T10:37:08;10.07;;;4.70;;
57385;SDS011;71829;56.976;21.958;2023-08-30T10:39:36;9.73;;;4.80;;
57385;SDS011;71829;56.976;21.958;2023-08-30T10:42:11;14.65;;;5.10;;
57385;SDS011;71829;56.976;21.958;2023-08-30T10:47:35;8.75;;;3.85;;
57385;SDS011;71829;56.976;21.958;2023-08-30T10:50:05;11.55;;;4.05;;
57385;SDS011;71829;56.976;21.958;2023-08-30T10:52:33;9.57;;;4.30;;
57385;SDS011;71829;56.976;21.958;2023-08-30T10:55:12;9.48;;;3.60;;
57385;SDS011;71829;56.976;21.958;2023-08-30T10:57:43;6.90;;;3.53;;
57385;SDS011;71829;56.976;21.958;2023-08-30T11:02:45;7.22;;;2.80;;
57385;SDS011;71829;56.976;21.958;2023-08-30T11:05:14;6.20;;;2.65;;
57385;SDS011;71829;56.976;21.958;2023-08-30T11:07:43;6.95;;;2.38;;
57385;SDS011;71829;56.976;21.958;2023-08-30T11:10:12;7.13;;;2.28;;
57385;SDS011;71829;56.976;21.958;2023-08-30T11:12:40;8.70;;;3.53;;
57385;SDS011;71829;56.976;21.958;2023-08-30T11:15:09;8.55;;;3.10;;
57385;SDS011;71829;56.976;21.958;2023-08-30T11:17:37;6.70;;;2.83;;
57385;SDS011;71829;56.976;21.958;2023-08-30T11:20:08;7.18;;;2.55;;
57385;SDS011;71829;56.976;21.958;2023-08-30T11:22:40;5.60;;;2.25;;
57385;SDS011;71829;56.976;21.958;2023-08-30T11:25:08;7.43;;;2.47;;
57385;SDS011;71829;56.976;21.958;2023-08-30T11:27:37;6.03;;;2.13;;
57385;SDS011;71829;56.976;21.958;2023-08-30T11:30:05;6.55;;;2.00;;
57385;SDS011;71829;56.976;21.958;2023-08-30T11:32:33;6.32;;;2.85;;
57385;SDS011;71829;56.976;21.958;2023-08-30T11:35:01;6.65;;;2.10;;
57385;SDS011;71829;56.976;21.958;2023-08-30T11:37:29;7.57;;;2.33;;
57385;SDS011;71829;56.976;21.958;2023-08-30T11:39:57;6.00;;;2.03;;
57385;SDS011;71829;56.976;21.958;2023-08-30T11:42:32;6.50;;;2.33;;
57385;SDS011;71829;56.976;21.958;2023-08-30T11:44:59;7.30;;;2.88;;
57385;SDS011;71829;56.976;21.958;2023-08-30T11:47:27;7.47;;;2.45;;
57385;SDS011;71829;56.976;21.958;2023-08-30T11:49:58;5.55;;;1.92;;
57385;SDS011;71829;56.976;21.958;2023-08-30T11:52:26;5.72;;;1.83;;
57385;SDS011;71829;56.976;21.958;2023-08-30T11:54:53;7.22;;;2.95;;
57385;SDS011;71829;56.976;21.958;2023-08-30T11:57:21;6.05;;;1.77;;
57385;SDS011;71829;56.976;21.958;2023-08-30T11:59:49;5.95;;;1.70;;
57385;SDS011;71829;56.976;21.958;2023-08-30T12:02:17;6.95;;;1.40;;
57385;SDS011;71829;56.976;21.958;2023-08-30T12:04:45;5.78;;;2.08;;
57385;SDS011;71829;56.976;21.958;2023-08-30T12:07:23;6.32;;;1.83;;
57385;SDS011;71829;56.976;21.958;2023-08-30T12:09:51;7.78;;;2.53;;
57385;SDS011;71829;56.976;21.958;2023-08-30T12:12:19;7.22;;;2.50;;
57385;SDS011;71829;56.976;21.958;2023-08-30T12:14:54;7.85;;;2.65;;
57385;SDS011;71829;56.976;21.958;2023-08-30T12:19:56;6.65;;;2.55;;
57385;SDS011;71829;56.976;21.958;2023-08-30T12:22:23;6.93;;;2.70;;
57385;SDS011;71829;56.976;21.958;2023-08-30T12:24:51;7.13;;;2.67;;
57385;SDS011;71829;56.976;21.958;2023-08-30T12:27:19;8.10;;;2.13;;
57385;SDS011;71829;56.976;21.958;2023-08-30T12:29:47;6.82;;;2.58;;
57385;SDS011;71829;56.976;21.958;2023-08-30T12:32:14;6.93;;;2.13;;
57385;SDS011;71829;56.976;21.958;2023-08-30T12:34:42;6.97;;;2.33;;
57385;SDS011;71829;56.976;21.958;2023-08-30T12:37:10;8.23;;;2.92;;
57385;SDS011;71829;56.976;21.958;2023-08-30T12:39:37;6.90;;;2.83;;
57385;SDS011;71829;56.976;21.958;2023-08-30T12:42:05;8.02;;;2.72;;
57385;SDS011;71829;56.976;21.958;2023-08-30T12:44:33;10.40;;;3.00;;
57385;SDS011;71829;56.976;21.958;2023-08-30T12:47:00;7.68;;;2.53;;
57385;SDS011;71829;56.976;21.958;2023-08-30T12:49:28;6.07;;;2.35;;
57385;SDS011;71829;56.976;21.958;2023-08-30T12:51:56;11.45;;;3.25;;
57385;SDS011;71829;56.976;21.958;2023-08-30T12:54:23;8.18;;;2.63;;
57385;SDS011;71829;56.976;21.958;2023-08-30T12:56:51;6.70;;;2.30;;
57385;SDS011;71829;56.976;21.958;2023-08-30T12:59:18;6.80;;;2.60;;
57385;SDS011;71829;56.976;21.958;2023-08-30T13:01:46;7.70;;;2.97;;
57385;SDS011;71829;56.976;21.958;2023-08-30T13:04:13;7.22;;;2.10;;
57385;SDS011;71829;56.976;21.958;2023-08-30T13:06:41;6.25;;;2.13;;
57385;SDS011;71829;56.976;21.958;2023-08-30T13:09:08;5.85;;;2.05;;
57385;SDS011;71829;56.976;21.958;2023-08-30T13:11:36;8.48;;;3.05;;
57385;SDS011;71829;56.976;21.958;2023-08-30T13:14:04;7.38;;;2.53;;
57385;SDS011;71829;56.976;21.958;2023-08-30T13:16:34;5.32;;;2.78;;
57385;SDS011;71829;56.976;21.958;2023-08-30T13:19:03;9.73;;;3.17;;
57385;SDS011;71829;56.976;21.958;2023-08-30T13:21:30;8.60;;;2.83;;
57385;SDS011;71829;56.976;21.958;2023-08-30T13:24:06;6.57;;;2.70;;
57385;SDS011;71829;56.976;21.958;2023-08-30T13:26:34;7.25;;;2.70;;
57385;SDS011;71829;56.976;21.958;2023-08-30T13:29:01;8.23;;;3.35;;
57385;SDS011;71829;56.976;21.958;2023-08-30T13:31:29;6.90;;;2.80;;
57385;SDS011;71829;56.976;21.958;2023-08-30T13:33:57;8.13;;;2.67;;
57385;SDS011;71829;56.976;21.958;2023-08-30T13:36:25;5.93;;;2.03;;
57385;SDS011;71829;56.976;21.958;2023-08-30T13:38:55;6.90;;;3.65;;
57385;SDS011;71829;56.976;21.958;2023-08-30T13:41:22;10.35;;;3.60;;
57385;SDS011;71829;56.976;21.958;2023-08-30T13:43:50;9.07;;;3.13;;
57385;SDS011;71829;56.976;21.958;2023-08-30T13:46:18;5.53;;;2.20;;
57385;SDS011;71829;56.976;21.958;2023-08-30T13:48:52;6.82;;;2.63;;
57385;SDS011;71829;56.976;21.958;2023-08-30T13:51:23;9.52;;;2.55;;
57385;SDS011;71829;56.976;21.958;2023-08-30T13:53:51;7.05;;;2.67;;
57385;SDS011;71829;56.976;21.958;2023-08-30T13:56:22;7.22;;;3.05;;
57385;SDS011;71829;56.976;21.958;2023-08-30T13:58:58;7.70;;;2.45;;
57385;SDS011;71829;56.976;21.958;2023-08-30T14:01:27;7.82;;;2.47;;
57385;SDS011;71829;56.976;21.958;2023-08-30T14:03:59;7.25;;;2.58;;
57385;SDS011;71829;56.976;21.958;2023-08-30T14:06:27;6.20;;;2.08;;
57385;SDS011;71829;56.976;21.958;2023-08-30T14:08:54;8.82;;;2.92;;
57385;SDS011;71829;56.976;21.958;2023-08-30T14:11:22;5.93;;;2.53;;
57385;SDS011;71829;56.976;21.958;2023-08-30T14:13:49;8.07;;;2.80;;
57385;SDS011;71829;56.976;21.958;2023-08-30T14:18:47;9.80;;;2.80;;
57385;SDS011;71829;56.976;21.958;2023-08-30T14:21:14;9.32;;;2.97;;
57385;SDS011;71829;56.976;21.958;2023-08-30T14:23:42;8.35;;;2.70;;
57385;SDS011;71829;56.976;21.958;2023-08-30T14:26:09;7.00;;;3.03;;
57385;SDS011;71829;56.976;21.958;2023-08-30T14:28:39;6.30;;;3.13;;
57385;SDS011;71829;56.976;21.958;2023-08-30T14:31:07;8.70;;;4.32;;
57385;SDS011;71829;56.976;21.958;2023-08-30T14:33:35;10.95;;;4.80;;
57385;SDS011;71829;56.976;21.958;2023-08-30T14:36:02;8.60;;;3.20;;
57385;SDS011;71829;56.976;21.958;2023-08-30T14:38:30;7.00;;;2.55;;
57385;SDS011;71829;56.976;21.958;2023-08-30T14:40:58;8.48;;;2.90;;
57385;SDS011;71829;56.976;21.958;2023-08-30T14:43:27;7.78;;;3.38;;
57385;SDS011;71829;56.976;21.958;2023-08-30T14:45:59;8.05;;;4.07;;
57385;SDS011;71829;56.976;21.958;2023-08-30T14:48:35;7.93;;;3.05;;
57385;SDS011;71829;56.976;21.958;2023-08-30T14:51:04;7.50;;;2.85;;
57385;SDS011;71829;56.976;21.958;2023-08-30T14:53:31;6.60;;;2.72;;
57385;SDS011;71829;56.976;21.958;2023-08-30T14:55:59;6.95;;;3.38;;
57385;SDS011;71829;56.976;21.958;2023-08-30T14:58:26;6.75;;;2.47;;
57385;SDS011;71829;56.976;21.958;2023-08-30T15:00:56;7.55;;;2.90;;
57385;SDS011;71829;56.976;21.958;2023-08-30T15:03:24;9.88;;;3.33;;
57385;SDS011;71829;56.976;21.958;2023-08-30T15:05:52;8.48;;;2.67;;